createdAt,value
2018-12-03T00:02:07.317Z,37.23
2018-12-03T00:04:49.495Z,41.03
2018-12-03T00:07:32.845Z,37.57
2018-12-03T00:10:15.461Z,40.03
2018-12-03T00:12:57.731Z,41.57
2018-12-03T00:15:41.451Z,45.03
2018-12-03T00:18:24.625Z,50.97
2018-12-03T00:21:07.126Z,41.57
2018-12-03T00:23:50.181Z,44.43
2018-12-03T00:26:32.988Z,41.77
2018-12-03T00:29:15.845Z,41.87
2018-12-03T00:31:58.698Z,41.43
2018-12-03T00:34:41.180Z,39.13
2018-12-03T00:37:23.624Z,38.87
2018-12-03T00:40:07.123Z,40.03
2018-12-03T00:42:49.658Z,37.03
2018-12-03T00:45:31.777Z,38.00
2018-12-03T00:48:14.222Z,36.07
2018-12-03T00:50:56.578Z,33.33
2018-12-03T00:53:39.120Z,32.50
2018-12-03T00:56:21.833Z,29.57
2018-12-03T00:59:04.945Z,34.90
2018-12-03T01:01:47.352Z,33.33
2018-12-03T01:04:30.434Z,28.53
2018-12-03T01:07:14.024Z,28.87
2018-12-03T01:09:57.604Z,28.67
2018-12-03T01:12:40.318Z,31.57
2018-12-03T01:15:22.875Z,30.67
2018-12-03T01:18:06.814Z,30.40
2018-12-03T01:20:49.553Z,32.17
2018-12-03T01:23:31.960Z,29.37
2018-12-03T01:26:14.574Z,33.00
2018-12-03T01:28:56.728Z,30.83
2018-12-03T01:31:40.505Z,33.13
2018-12-03T01:34:22.576Z,35.10
2018-12-03T01:37:04.965Z,41.27
2018-12-03T01:39:47.702Z,41.13
2018-12-03T01:42:29.849Z,41.20
2018-12-03T01:45:12.941Z,39.40
2018-12-03T01:47:55.961Z,40.47
2018-12-03T01:50:38.240Z,41.60
2018-12-03T01:53:23.107Z,47.73
2018-12-03T01:56:05.078Z,43.63
2018-12-03T01:58:47.552Z,57.47
2018-12-03T02:01:30.229Z,52.10
2018-12-03T02:04:12.551Z,83.30
2018-12-03T02:06:54.860Z,56.93
2018-12-03T02:09:37.393Z,59.10
2018-12-03T02:12:19.561Z,38.27
2018-12-03T02:15:02.089Z,19.40
2018-12-03T02:17:45.153Z,24.57
2018-12-03T02:20:27.432Z,24.60
2018-12-03T02:23:09.480Z,21.67
2018-12-03T02:25:52.354Z,21.83
2018-12-03T02:28:34.345Z,21.63
2018-12-03T02:31:16.882Z,19.20
2018-12-03T02:33:59.791Z,21.80
2018-12-03T02:36:42.057Z,20.17
2018-12-03T02:39:24.145Z,25.73
2018-12-03T02:42:06.956Z,26.20
2018-12-03T02:44:49.444Z,28.53
2018-12-03T02:47:31.313Z,26.07
2018-12-03T02:50:15.532Z,27.57
2018-12-03T02:52:58.453Z,27.00
2018-12-03T02:55:40.682Z,30.77
2018-12-03T02:58:23.558Z,30.00
2018-12-03T03:01:05.855Z,33.80
2018-12-03T03:03:48.819Z,26.73
2018-12-03T03:06:31.067Z,27.00
2018-12-03T03:09:13.801Z,28.27
2018-12-03T03:11:55.771Z,32.50
2018-12-03T03:14:38.650Z,31.00
2018-12-03T03:17:20.786Z,34.77
2018-12-03T03:20:03.317Z,30.97
2018-12-03T03:22:46.010Z,31.80
2018-12-03T03:25:28.458Z,30.10
2018-12-03T03:28:10.592Z,28.47
2018-12-03T03:30:56.474Z,27.47
2018-12-03T03:33:38.827Z,33.43
2018-12-03T03:36:21.180Z,31.00
2018-12-03T03:39:08.412Z,30.70
2018-12-03T03:41:51.269Z,30.40
2018-12-03T03:44:33.467Z,19.40
2018-12-03T03:47:16.190Z,21.67
2018-12-03T03:49:58.403Z,25.70
2018-12-03T03:52:40.823Z,28.07
2018-12-03T03:55:23.201Z,25.77
2018-12-03T03:58:05.968Z,20.83
2018-12-03T04:00:48.282Z,25.23
2018-12-03T04:03:30.635Z,27.53
2018-12-03T04:06:13.930Z,30.43
2018-12-03T04:08:56.391Z,25.83
2018-12-03T04:11:38.901Z,23.77
2018-12-03T04:14:21.404Z,26.97
2018-12-03T04:17:04.674Z,27.20
2018-12-03T04:19:47.046Z,26.10
2018-12-03T04:22:29.545Z,34.00
2018-12-03T04:25:13.009Z,25.27
2018-12-03T04:27:55.320Z,28.00
2018-12-03T04:30:38.253Z,26.23
2018-12-03T04:33:20.421Z,28.30
2018-12-03T04:36:02.846Z,25.40
2018-12-03T04:38:45.261Z,28.80
2018-12-03T04:41:27.677Z,18.10
2018-12-03T04:44:10.031Z,18.57
2018-12-03T04:46:52.908Z,10.60
2018-12-03T04:49:35.006Z,7.37
2018-12-03T04:52:17.521Z,9.93
2018-12-03T04:54:59.983Z,7.33
2018-12-03T04:57:42.442Z,7.33
2018-12-03T05:00:24.874Z,5.57
2018-12-03T05:03:07.374Z,5.37
2018-12-03T05:05:49.855Z,4.13
2018-12-03T05:08:32.822Z,2.73
2018-12-03T05:11:15.593Z,3.70
2018-12-03T05:13:58.027Z,3.77
2018-12-03T05:16:40.365Z,3.07
2018-12-03T05:19:23.075Z,3.50
2018-12-03T05:22:05.538Z,4.13
2018-12-03T05:24:47.706Z,4.20
2018-12-03T05:27:30.163Z,3.70
2018-12-03T05:30:15.637Z,4.07
2018-12-03T05:32:57.998Z,2.57
2018-12-03T12:50:21.195Z,24.20
2018-12-03T17:21:12.815Z,16.27
2018-12-03T17:24:14.406Z,13.40
2018-12-03T17:27:24.539Z,17.67
2018-12-03T17:30:17.931Z,15.40
2018-12-03T19:35:27.266Z,22.17
2018-12-03T19:41:27.507Z,20.83
2018-12-03T19:50:22.677Z,27.63
2018-12-03T19:53:05.765Z,21.60
2018-12-03T19:55:53.206Z,25.00
2018-12-03T19:58:36.665Z,22.97
2018-12-03T20:01:46.066Z,24.73
2018-12-03T20:04:53.926Z,25.13
2018-12-03T20:08:01.107Z,28.87
2018-12-03T20:14:04.655Z,26.90
2018-12-03T20:16:52.680Z,22.90
2018-12-03T20:20:01.445Z,30.63
2018-12-03T20:22:57.683Z,26.87
2018-12-03T20:32:28.663Z,25.93
2018-12-03T20:35:36.589Z,21.13
2018-12-03T20:38:42.043Z,21.50
2018-12-03T20:41:40.607Z,27.33
2018-12-03T20:45:12.068Z,25.40
2018-12-03T20:51:11.882Z,20.80
2018-12-03T20:57:15.239Z,34.63
2018-12-03T21:03:06.905Z,33.03
2018-12-03T21:06:06.992Z,36.27
2018-12-03T21:11:50.976Z,29.80
2018-12-03T21:17:53.076Z,38.23
2018-12-03T21:20:48.285Z,32.87
2018-12-03T21:23:50.276Z,38.07
2018-12-03T21:26:40.064Z,37.07
2018-12-03T21:32:32.697Z,37.67
2018-12-03T21:38:30.938Z,34.07
2018-12-03T21:41:20.431Z,42.77
2018-12-03T21:44:12.940Z,30.97
2018-12-03T21:50:07.411Z,32.03
2018-12-03T21:52:56.942Z,33.30
2018-12-03T21:59:13.224Z,35.23
2018-12-03T22:08:20.823Z,28.70
2018-12-03T22:11:10.601Z,32.53
2018-12-03T22:17:16.994Z,36.50
2018-12-03T22:20:17.275Z,36.27
